ENSO/SRP METAR and TAF weather

Enter ICAO airport designator
Station Type Date Time Source
ENSO METAR 2019/09/20 17:50 UTC NOAA

ENSO 201750Z VRB02KT 9999 SCT022 11/10 Q1024


Station Type Date Time Source
ENSO Decoded METAR 2019/09/20 17:50 UTC NOAA

Stord / Soerstokken, Norway (ENSO) 59-48N 005-21E
Sep 20, 2019 - 01:50 PM EDT / 2019.09.20 1750 UTC
Wind: Variable at 2 MPH (2 KT):0
Visibility: greater than 7 mile(s):0
Sky conditions: partly cloudy
Temperature: 51 F (11 C)
Dew Point: 50 F (10 C)
Relative Humidity: 93%
Pressure (altimeter): 30.24 in. Hg (1024 hPa)
ob: ENSO 201750Z VRB02KT 9999 SCT022 11/10 Q1024
cycle: 18

Station Type Date Time Source
ENSO TAF UTC NOAA

Error!

Example: see airport list